sensor_id;sensor_type;location;lat;lon;timestamp;temperature;humidity
49441;DHT22;35317;51.978;6.296;2023-05-07T00:02:06;16.20;95.70
49441;DHT22;35317;51.978;6.296;2023-05-07T00:07:07;16.20;95.70
49441;DHT22;35317;51.978;6.296;2023-05-07T00:12:08;16.20;95.70
49441;DHT22;35317;51.978;6.296;2023-05-07T00:17:09;16.20;95.60
49441;DHT22;35317;51.978;6.296;2023-05-07T00:22:10;16.20;95.50
49441;DHT22;35317;51.978;6.296;2023-05-07T00:27:11;16.20;95.50
49441;DHT22;35317;51.978;6.296;2023-05-07T00:32:11;16.20;95.40
49441;DHT22;35317;51.978;6.296;2023-05-07T00:37:12;16.30;95.40
49441;DHT22;35317;51.978;6.296;2023-05-07T00:42:13;16.20;95.30
49441;DHT22;35317;51.978;6.296;2023-05-07T00:47:16;16.10;95.30
49441;DHT22;35317;51.978;6.296;2023-05-07T00:52:17;16.10;95.30
49441;DHT22;35317;51.978;6.296;2023-05-07T00:57:19;16.00;95.30
49441;DHT22;35317;51.978;6.296;2023-05-07T01:02:22;15.90;95.30
49441;DHT22;35317;51.978;6.296;2023-05-07T01:07:23;15.90;95.40
49441;DHT22;35317;51.978;6.296;2023-05-07T01:12:24;15.70;95.40
49441;DHT22;35317;51.978;6.296;2023-05-07T01:17:26;15.60;95.40
49441;DHT22;35317;51.978;6.296;2023-05-07T01:22:34;15.40;95.50
49441;DHT22;35317;51.978;6.296;2023-05-07T01:27:36;15.20;95.60
49441;DHT22;35317;51.978;6.296;2023-05-07T01:32:42;15.10;95.80
49441;DHT22;35317;51.978;6.296;2023-05-07T01:37:45;15.00;95.90
49441;DHT22;35317;51.978;6.296;2023-05-07T01:42:47;14.90;96.00
49441;DHT22;35317;51.978;6.296;2023-05-07T01:47:49;14.80;96.10
49441;DHT22;35317;51.978;6.296;2023-05-07T01:52:51;14.70;96.20
49441;DHT22;35317;51.978;6.296;2023-05-07T01:57:52;14.70;96.40
49441;DHT22;35317;51.978;6.296;2023-05-07T02:02:52;14.60;96.50
49441;DHT22;35317;51.978;6.296;2023-05-07T02:07:53;14.60;96.60
49441;DHT22;35317;51.978;6.296;2023-05-07T02:12:54;14.70;96.80
49441;DHT22;35317;51.978;6.296;2023-05-07T02:18:01;14.70;96.80
49441;DHT22;35317;51.978;6.296;2023-05-07T02:23:02;14.70;96.90
49441;DHT22;35317;51.978;6.296;2023-05-07T02:28:03;14.80;97.00
49441;DHT22;35317;51.978;6.296;2023-05-07T02:33:04;14.80;97.10
49441;DHT22;35317;51.978;6.296;2023-05-07T02:38:05;14.80;97.20
49441;DHT22;35317;51.978;6.296;2023-05-07T02:43:06;14.70;97.40
49441;DHT22;35317;51.978;6.296;2023-05-07T02:48:07;14.70;97.60
49441;DHT22;35317;51.978;6.296;2023-05-07T02:53:08;14.60;97.70
49441;DHT22;35317;51.978;6.296;2023-05-07T02:58:08;14.60;97.90
49441;DHT22;35317;51.978;6.296;2023-05-07T03:03:09;14.60;98.10
49441;DHT22;35317;51.978;6.296;2023-05-07T03:08:11;14.60;98.20
49441;DHT22;35317;51.978;6.296;2023-05-07T03:13:12;14.50;98.30
49441;DHT22;35317;51.978;6.296;2023-05-07T03:18:12;14.50;98.50
49441;DHT22;35317;51.978;6.296;2023-05-07T03:23:13;14.50;98.60
49441;DHT22;35317;51.978;6.296;2023-05-07T03:28:14;14.40;98.70
49441;DHT22;35317;51.978;6.296;2023-05-07T03:33:15;14.30;98.90
49441;DHT22;35317;51.978;6.296;2023-05-07T03:38:16;14.30;99.10
49441;DHT22;35317;51.978;6.296;2023-05-07T03:43:16;14.30;99.20
49441;DHT22;35317;51.978;6.296;2023-05-07T03:48:17;14.30;99.40
49441;DHT22;35317;51.978;6.296;2023-05-07T03:53:18;14.30;99.50
49441;DHT22;35317;51.978;6.296;2023-05-07T03:58:19;14.30;99.60
49441;DHT22;35317;51.978;6.296;2023-05-07T04:03:19;14.30;99.70
49441;DHT22;35317;51.978;6.296;2023-05-07T04:08:20;14.30;99.80
49441;DHT22;35317;51.978;6.296;2023-05-07T04:13:21;14.30;99.90
49441;DHT22;35317;51.978;6.296;2023-05-07T04:18:22;14.30;99.90
49441;DHT22;35317;51.978;6.296;2023-05-07T04:23:22;14.40;99.90
49441;DHT22;35317;51.978;6.296;2023-05-07T04:28:24;14.40;99.90
49441;DHT22;35317;51.978;6.296;2023-05-07T04:33:25;14.50;99.90
49441;DHT22;35317;51.978;6.296;2023-05-07T04:38:25;14.50;99.90
49441;DHT22;35317;51.978;6.296;2023-05-07T04:43:26;14.50;99.90
49441;DHT22;35317;51.978;6.296;2023-05-07T04:48:27;14.60;99.90
49441;DHT22;35317;51.978;6.296;2023-05-07T04:53:29;14.70;99.90
49441;DHT22;35317;51.978;6.296;2023-05-07T04:58:29;14.70;99.90
49441;DHT22;35317;51.978;6.296;2023-05-07T05:03:32;14.70;99.90
49441;DHT22;35317;51.978;6.296;2023-05-07T05:08:32;14.70;99.90
49441;DHT22;35317;51.978;6.296;2023-05-07T05:13:33;14.80;99.90
49441;DHT22;35317;51.978;6.296;2023-05-07T05:18:34;14.90;99.90
49441;DHT22;35317;51.978;6.296;2023-05-07T05:23:35;14.90;99.90
49441;DHT22;35317;51.978;6.296;2023-05-07T05:28:36;14.90;99.90
49441;DHT22;35317;51.978;6.296;2023-05-07T05:33:36;15.00;99.90
49441;DHT22;35317;51.978;6.296;2023-05-07T05:38:37;15.00;99.90
49441;DHT22;35317;51.978;6.296;2023-05-07T05:43:38;15.10;99.90
49441;DHT22;35317;51.978;6.296;2023-05-07T05:48:39;15.20;99.90
49441;DHT22;35317;51.978;6.296;2023-05-07T05:53:40;15.20;99.90
49441;DHT22;35317;51.978;6.296;2023-05-07T05:58:41;15.30;99.90
49441;DHT22;35317;51.978;6.296;2023-05-07T06:03:41;15.40;99.90
49441;DHT22;35317;51.978;6.296;2023-05-07T06:08:42;15.40;99.90
49441;DHT22;35317;51.978;6.296;2023-05-07T06:13:43;15.40;99.90
49441;DHT22;35317;51.978;6.296;2023-05-07T06:18:43;15.50;99.90
49441;DHT22;35317;51.978;6.296;2023-05-07T06:23:46;15.60;99.90
49441;DHT22;35317;51.978;6.296;2023-05-07T06:28:47;15.70;99.90
49441;DHT22;35317;51.978;6.296;2023-05-07T06:33:49;15.70;99.90
49441;DHT22;35317;51.978;6.296;2023-05-07T06:38:50;15.80;99.90
49441;DHT22;35317;51.978;6.296;2023-05-07T06:43:51;15.80;99.90
49441;DHT22;35317;51.978;6.296;2023-05-07T06:48:52;15.90;99.90
49441;DHT22;35317;51.978;6.296;2023-05-07T06:53:53;16.00;99.90
49441;DHT22;35317;51.978;6.296;2023-05-07T06:58:53;16.00;99.90
49441;DHT22;35317;51.978;6.296;2023-05-07T07:03:54;16.10;99.90
49441;DHT22;35317;51.978;6.296;2023-05-07T07:08:55;16.10;99.90
49441;DHT22;35317;51.978;6.296;2023-05-07T07:13:56;16.20;99.90
49441;DHT22;35317;51.978;6.296;2023-05-07T07:18:57;16.20;99.90
49441;DHT22;35317;51.978;6.296;2023-05-07T07:23:58;16.30;99.90
49441;DHT22;35317;51.978;6.296;2023-05-07T07:28:58;16.50;99.90
49441;DHT22;35317;51.978;6.296;2023-05-07T07:33:59;16.70;99.90
49441;DHT22;35317;51.978;6.296;2023-05-07T07:39:00;16.90;99.90
49441;DHT22;35317;51.978;6.296;2023-05-07T07:44:02;17.00;99.90
49441;DHT22;35317;51.978;6.296;2023-05-07T07:49:04;17.20;99.80
49441;DHT22;35317;51.978;6.296;2023-05-07T07:54:04;17.30;99.60
49441;DHT22;35317;51.978;6.296;2023-05-07T07:59:05;17.50;99.40
49441;DHT22;35317;51.978;6.296;2023-05-07T08:04:06;17.60;99.10
49441;DHT22;35317;51.978;6.296;2023-05-07T08:09:07;17.70;98.90
49441;DHT22;35317;51.978;6.296;2023-05-07T08:14:08;17.90;98.80
49441;DHT22;35317;51.978;6.296;2023-05-07T08:19:09;18.20;98.60
49441;DHT22;35317;51.978;6.296;2023-05-07T08:24:10;18.40;98.20
49441;DHT22;35317;51.978;6.296;2023-05-07T08:29:12;18.50;98.00
49441;DHT22;35317;51.978;6.296;2023-05-07T08:34:12;18.70;97.70
49441;DHT22;35317;51.978;6.296;2023-05-07T08:39:14;18.90;97.40
49441;DHT22;35317;51.978;6.296;2023-05-07T08:44:16;19.20;97.40
49441;DHT22;35317;51.978;6.296;2023-05-07T08:49:21;19.40;97.00
49441;DHT22;35317;51.978;6.296;2023-05-07T08:54:26;19.70;96.80
49441;DHT22;35317;51.978;6.296;2023-05-07T08:59:26;19.90;96.30
49441;DHT22;35317;51.978;6.296;2023-05-07T09:04:27;20.10;95.80
49441;DHT22;35317;51.978;6.296;2023-05-07T09:09:28;20.10;95.50
49441;DHT22;35317;51.978;6.296;2023-05-07T09:14:29;20.20;95.30
49441;DHT22;35317;51.978;6.296;2023-05-07T09:19:33;20.50;95.20
49441;DHT22;35317;51.978;6.296;2023-05-07T09:24:34;20.90;94.40
49441;DHT22;35317;51.978;6.296;2023-05-07T09:29:37;21.10;94.10
49441;DHT22;35317;51.978;6.296;2023-05-07T09:34:38;21.40;93.40
49441;DHT22;35317;51.978;6.296;2023-05-07T09:39:43;21.70;92.80
49441;DHT22;35317;51.978;6.296;2023-05-07T09:44:48;21.60;92.20
49441;DHT22;35317;51.978;6.296;2023-05-07T09:49:50;21.30;91.90
49441;DHT22;35317;51.978;6.296;2023-05-07T09:54:57;21.40;92.10
49441;DHT22;35317;51.978;6.296;2023-05-07T09:59:59;21.60;92.00
49441;DHT22;35317;51.978;6.296;2023-05-07T10:05:04;21.80;91.50
49441;DHT22;35317;51.978;6.296;2023-05-07T10:10:06;22.00;90.90
49441;DHT22;35317;51.978;6.296;2023-05-07T10:15:11;22.00;90.40
49441;DHT22;35317;51.978;6.296;2023-05-07T10:20:12;22.20;90.30
49441;DHT22;35317;51.978;6.296;2023-05-07T10:25:28;22.40;90.00
49441;DHT22;35317;51.978;6.296;2023-05-07T10:36:00;22.50;89.10
49441;DHT22;35317;51.978;6.296;2023-05-07T10:41:04;22.50;89.00
49441;DHT22;35317;51.978;6.296;2023-05-07T10:46:19;22.80;88.90
49441;DHT22;35317;51.978;6.296;2023-05-07T10:51:21;23.00;88.20
49441;DHT22;35317;51.978;6.296;2023-05-07T11:01:53;23.40;86.70
49441;DHT22;35317;51.978;6.296;2023-05-07T11:12:09;23.50;85.70
49441;DHT22;35317;51.978;6.296;2023-05-07T11:17:10;23.50;85.30
49441;DHT22;35317;51.978;6.296;2023-05-07T11:27:31;23.50;84.20
49441;DHT22;35317;51.978;6.296;2023-05-07T11:32:33;23.50;83.80
49441;DHT22;35317;51.978;6.296;2023-05-07T11:37:33;23.50;84.10
49441;DHT22;35317;51.978;6.296;2023-05-07T11:42:36;23.40;83.80
49441;DHT22;35317;51.978;6.296;2023-05-07T11:47:38;23.40;83.80
49441;DHT22;35317;51.978;6.296;2023-05-07T11:52:50;23.50;83.20
49441;DHT22;35317;51.978;6.296;2023-05-07T11:57:52;23.60;82.40
49441;DHT22;35317;51.978;6.296;2023-05-07T12:02:53;23.70;82.10
49441;DHT22;35317;51.978;6.296;2023-05-07T12:07:58;23.70;81.80
49441;DHT22;35317;51.978;6.296;2023-05-07T12:12:59;23.80;81.20
49441;DHT22;35317;51.978;6.296;2023-05-07T12:18:00;23.90;80.50
49441;DHT22;35317;51.978;6.296;2023-05-07T12:23:02;24.10;80.10
49441;DHT22;35317;51.978;6.296;2023-05-07T12:28:03;24.00;78.90
49441;DHT22;35317;51.978;6.296;2023-05-07T12:33:07;24.00;79.20
49441;DHT22;35317;51.978;6.296;2023-05-07T12:38:12;24.20;78.60
49441;DHT22;35317;51.978;6.296;2023-05-07T12:43:24;24.30;78.10
49441;DHT22;35317;51.978;6.296;2023-05-07T12:48:28;24.40;77.40
49441;DHT22;35317;51.978;6.296;2023-05-07T12:53:29;24.40;76.20
49441;DHT22;35317;51.978;6.296;2023-05-07T12:58:33;24.40;76.50
49441;DHT22;35317;51.978;6.296;2023-05-07T13:03:37;24.30;75.70
49441;DHT22;35317;51.978;6.296;2023-05-07T13:08:42;24.40;75.30
49441;DHT22;35317;51.978;6.296;2023-05-07T13:13:45;24.50;74.90
49441;DHT22;35317;51.978;6.296;2023-05-07T13:18:46;24.50;75.10
49441;DHT22;35317;51.978;6.296;2023-05-07T13:23:47;24.50;74.50
49441;DHT22;35317;51.978;6.296;2023-05-07T13:28:47;24.40;74.00
49441;DHT22;35317;51.978;6.296;2023-05-07T13:33:49;24.00;74.20
49441;DHT22;35317;51.978;6.296;2023-05-07T13:38:50;23.80;74.50
49441;DHT22;35317;51.978;6.296;2023-05-07T13:43:51;23.50;74.70
49441;DHT22;35317;51.978;6.296;2023-05-07T13:48:52;23.40;75.20
49441;DHT22;35317;51.978;6.296;2023-05-07T13:53:53;23.10;75.90
49441;DHT22;35317;51.978;6.296;2023-05-07T13:58:54;23.00;76.40
49441;DHT22;35317;51.978;6.296;2023-05-07T14:03:56;22.70;76.50
49441;DHT22;35317;51.978;6.296;2023-05-07T14:08:58;22.60;77.00
49441;DHT22;35317;51.978;6.296;2023-05-07T14:13:58;22.40;77.30
49441;DHT22;35317;51.978;6.296;2023-05-07T14:18:59;22.30;77.60
49441;DHT22;35317;51.978;6.296;2023-05-07T14:24:00;22.10;78.10
49441;DHT22;35317;51.978;6.296;2023-05-07T14:29:01;22.10;78.50
49441;DHT22;35317;51.978;6.296;2023-05-07T14:34:02;21.90;79.00
49441;DHT22;35317;51.978;6.296;2023-05-07T14:39:03;21.80;79.40
49441;DHT22;35317;51.978;6.296;2023-05-07T14:44:04;21.70;79.80
49441;DHT22;35317;51.978;6.296;2023-05-07T14:49:05;21.70;80.30
49441;DHT22;35317;51.978;6.296;2023-05-07T14:54:06;21.60;80.50
49441;DHT22;35317;51.978;6.296;2023-05-07T14:59:08;21.40;80.80
49441;DHT22;35317;51.978;6.296;2023-05-07T15:04:08;21.40;81.00
49441;DHT22;35317;51.978;6.296;2023-05-07T15:09:09;21.30;81.30
49441;DHT22;35317;51.978;6.296;2023-05-07T15:14:10;21.20;81.70
49441;DHT22;35317;51.978;6.296;2023-05-07T15:19:11;21.20;81.90
49441;DHT22;35317;51.978;6.296;2023-05-07T15:24:12;21.10;82.50
49441;DHT22;35317;51.978;6.296;2023-05-07T15:29:13;21.20;82.70
49441;DHT22;35317;51.978;6.296;2023-05-07T15:34:14;21.00;82.90
49441;DHT22;35317;51.978;6.296;2023-05-07T15:39:17;20.70;83.70
49441;DHT22;35317;51.978;6.296;2023-05-07T15:44:18;20.50;84.50
49441;DHT22;35317;51.978;6.296;2023-05-07T15:49:19;20.20;85.30
49441;DHT22;35317;51.978;6.296;2023-05-07T15:54:20;20.10;85.80
49441;DHT22;35317;51.978;6.296;2023-05-07T15:59:21;20.00;86.60
49441;DHT22;35317;51.978;6.296;2023-05-07T16:04:22;19.80;87.70
49441;DHT22;35317;51.978;6.296;2023-05-07T16:09:22;19.80;88.30
49441;DHT22;35317;51.978;6.296;2023-05-07T16:14:25;19.70;88.70
49441;DHT22;35317;51.978;6.296;2023-05-07T16:19:26;19.60;89.00
49441;DHT22;35317;51.978;6.296;2023-05-07T16:24:27;19.60;89.50
49441;DHT22;35317;51.978;6.296;2023-05-07T16:29:27;19.60;90.00
49441;DHT22;35317;51.978;6.296;2023-05-07T16:34:28;19.50;90.30
49441;DHT22;35317;51.978;6.296;2023-05-07T16:39:31;19.50;90.60
49441;DHT22;35317;51.978;6.296;2023-05-07T16:44:32;19.40;90.80
49441;DHT22;35317;51.978;6.296;2023-05-07T16:49:33;19.30;91.20
49441;DHT22;35317;51.978;6.296;2023-05-07T16:54:34;19.20;91.60
49441;DHT22;35317;51.978;6.296;2023-05-07T16:59:36;19.10;91.80
49441;DHT22;35317;51.978;6.296;2023-05-07T17:04:37;18.90;92.00
49441;DHT22;35317;51.978;6.296;2023-05-07T17:09:37;18.70;92.20
49441;DHT22;35317;51.978;6.296;2023-05-07T17:14:38;18.40;92.80
49441;DHT22;35317;51.978;6.296;2023-05-07T17:19:39;17.80;94.00
49441;DHT22;35317;51.978;6.296;2023-05-07T17:24:43;17.40;94.80
49441;DHT22;35317;51.978;6.296;2023-05-07T17:29:44;17.00;95.90
49441;DHT22;35317;51.978;6.296;2023-05-07T17:34:45;16.80;96.20
49441;DHT22;35317;51.978;6.296;2023-05-07T17:39:46;16.50;96.80
49441;DHT22;35317;51.978;6.296;2023-05-07T17:44:48;16.40;97.10
49441;DHT22;35317;51.978;6.296;2023-05-07T17:49:48;16.20;97.40
49441;DHT22;35317;51.978;6.296;2023-05-07T17:54:49;16.00;97.90
49441;DHT22;35317;51.978;6.296;2023-05-07T17:59:50;15.90;98.30
49441;DHT22;35317;51.978;6.296;2023-05-07T18:04:51;15.80;98.60
49441;DHT22;35317;51.978;6.296;2023-05-07T18:09:51;15.80;99.00
49441;DHT22;35317;51.978;6.296;2023-05-07T18:14:52;15.80;99.30
49441;DHT22;35317;51.978;6.296;2023-05-07T18:26:19;15.70;99.90
49441;DHT22;35317;51.978;6.296;2023-05-07T18:31:46;15.60;99.90
49441;DHT22;35317;51.978;6.296;2023-05-07T18:43:53;15.80;99.90
49441;DHT22;35317;51.978;6.296;2023-05-07T18:48:55;15.60;99.90
49441;DHT22;35317;51.978;6.296;2023-05-07T18:53:56;15.60;99.90
49441;DHT22;35317;51.978;6.296;2023-05-07T18:58:57;15.60;99.90
49441;DHT22;35317;51.978;6.296;2023-05-07T19:10:27;15.60;99.90
49441;DHT22;35317;51.978;6.296;2023-05-07T19:15:44;15.50;99.90
49441;DHT22;35317;51.978;6.296;2023-05-07T19:20:49;15.50;99.90
49441;DHT22;35317;51.978;6.296;2023-05-07T19:25:50;15.40;99.90
49441;DHT22;35317;51.978;6.296;2023-05-07T19:42:59;15.20;99.90
49441;DHT22;35317;51.978;6.296;2023-05-07T19:48:00;15.20;99.90
49441;DHT22;35317;51.978;6.296;2023-05-07T19:53:29;15.20;99.90
49441;DHT22;35317;51.978;6.296;2023-05-07T19:58:56;15.30;99.90
49441;DHT22;35317;51.978;6.296;2023-05-07T20:03:57;15.30;99.90
49441;DHT22;35317;51.978;6.296;2023-05-07T20:14:50;15.30;99.90
49441;DHT22;35317;51.978;6.296;2023-05-07T20:19:50;15.30;99.90
49441;DHT22;35317;51.978;6.296;2023-05-07T20:24:58;15.30;99.90
49441;DHT22;35317;51.978;6.296;2023-05-07T20:30:15;15.40;99.90
49441;DHT22;35317;51.978;6.296;2023-05-07T20:42:52;15.40;99.90
49441;DHT22;35317;51.978;6.296;2023-05-07T21:22:10;15.40;99.90
49441;DHT22;35317;51.978;6.296;2023-05-07T21:27:11;15.30;99.90
49441;DHT22;35317;51.978;6.296;2023-05-07T21:32:12;15.30;99.90
49441;DHT22;35317;51.978;6.296;2023-05-07T21:37:16;15.30;99.90
49441;DHT22;35317;51.978;6.296;2023-05-07T21:42:16;15.30;99.90
49441;DHT22;35317;51.978;6.296;2023-05-07T21:53:17;15.30;99.90
49441;DHT22;35317;51.978;6.296;2023-05-07T21:58:18;15.30;99.90
49441;DHT22;35317;51.978;6.296;2023-05-07T22:03:19;15.40;99.90
49441;DHT22;35317;51.978;6.296;2023-05-07T22:08:20;15.30;99.90
49441;DHT22;35317;51.978;6.296;2023-05-07T22:13:21;15.40;99.90
49441;DHT22;35317;51.978;6.296;2023-05-07T22:18:22;15.40;99.90
49441;DHT22;35317;51.978;6.296;2023-05-07T22:23:24;15.40;99.90
49441;DHT22;35317;51.978;6.296;2023-05-07T22:28:25;15.40;99.90
49441;DHT22;35317;51.978;6.296;2023-05-07T22:33:26;15.30;99.90
49441;DHT22;35317;51.978;6.296;2023-05-07T22:38:52;15.30;99.90
49441;DHT22;35317;51.978;6.296;2023-05-07T22:43:53;15.20;99.90
49441;DHT22;35317;51.978;6.296;2023-05-07T22:48:53;15.30;99.90
